sensor_id;sensor_type;location;lat;lon;timestamp;pressure;altitude;pressure_sealevel;temperature;humidity
61086;BME280;46967;48.876;2.136;2023-11-19T00:02:10;101319.63;;;43.09;16.39
61086;BME280;46967;48.876;2.136;2023-11-19T00:04:38;101315.22;;;42.40;17.06
61086;BME280;46967;48.876;2.136;2023-11-19T00:07:04;101316.72;;;42.47;16.79
61086;BME280;46967;48.876;2.136;2023-11-19T00:09:32;101312.09;;;43.60;15.85
61086;BME280;46967;48.876;2.136;2023-11-19T00:11:57;101317.63;;;42.87;16.17
61086;BME280;46967;48.876;2.136;2023-11-19T00:14:23;101312.06;;;43.55;15.38
61086;BME280;46967;48.876;2.136;2023-11-19T00:16:49;101309.97;;;43.62;15.75
61086;BME280;46967;48.876;2.136;2023-11-19T00:19:16;101302.63;;;43.90;15.49
61086;BME280;46967;48.876;2.136;2023-11-19T00:21:41;101301.69;;;44.06;15.35
61086;BME280;46967;48.876;2.136;2023-11-19T00:24:07;101309.75;;;43.24;15.98
61086;BME280;46967;48.876;2.136;2023-11-19T00:26:33;101299.31;;;42.99;16.05
61086;BME280;46967;48.876;2.136;2023-11-19T00:28:59;101299.34;;;43.66;15.97
61086;BME280;46967;48.876;2.136;2023-11-19T00:31:24;101288.25;;;42.72;16.24
61086;BME280;46967;48.876;2.136;2023-11-19T00:33:51;101296.69;;;43.49;16.02
61086;BME280;46967;48.876;2.136;2023-11-19T00:36:16;101288.19;;;43.06;16.37
61086;BME280;46967;48.876;2.136;2023-11-19T00:38:42;101282.03;;;43.55;15.55
61086;BME280;46967;48.876;2.136;2023-11-19T00:41:07;101278.13;;;43.06;16.25
61086;BME280;46967;48.876;2.136;2023-11-19T00:43:32;101284.97;;;43.31;15.69
61086;BME280;46967;48.876;2.136;2023-11-19T00:45:58;101276.09;;;43.63;15.38
61086;BME280;46967;48.876;2.136;2023-11-19T00:48:23;101277.41;;;42.77;16.16
61086;BME280;46967;48.876;2.136;2023-11-19T00:50:48;101277.28;;;43.72;15.73
61086;BME280;46967;48.876;2.136;2023-11-19T00:53:14;101280.72;;;44.12;14.89
61086;BME280;46967;48.876;2.136;2023-11-19T00:55:39;101281.09;;;42.54;16.67
61086;BME280;46967;48.876;2.136;2023-11-19T00:58:04;101285.38;;;43.18;15.91
61086;BME280;46967;48.876;2.136;2023-11-19T01:00:30;101282.81;;;43.77;15.41
61086;BME280;46967;48.876;2.136;2023-11-19T01:02:57;101281.59;;;43.90;15.62
61086;BME280;46967;48.876;2.136;2023-11-19T01:05:22;101286.00;;;43.69;15.36
61086;BME280;46967;48.876;2.136;2023-11-19T01:07:48;101284.91;;;43.04;16.15
61086;BME280;46967;48.876;2.136;2023-11-19T01:10:14;101285.16;;;43.02;15.78
61086;BME280;46967;48.876;2.136;2023-11-19T01:12:41;101286.81;;;42.86;16.05
61086;BME280;46967;48.876;2.136;2023-11-19T01:15:07;101291.41;;;42.35;16.59
61086;BME280;46967;48.876;2.136;2023-11-19T01:17:33;101276.50;;;43.50;15.63
61086;BME280;46967;48.876;2.136;2023-11-19T01:19:58;101284.66;;;42.88;16.11
61086;BME280;46967;48.876;2.136;2023-11-19T01:22:24;101286.44;;;42.61;16.61
61086;BME280;46967;48.876;2.136;2023-11-19T01:24:49;101285.72;;;42.20;16.58
61086;BME280;46967;48.876;2.136;2023-11-19T01:27:15;101282.53;;;42.74;16.32
61086;BME280;46967;48.876;2.136;2023-11-19T01:29:40;101275.28;;;43.40;15.69
61086;BME280;46967;48.876;2.136;2023-11-19T01:32:06;101292.03;;;43.05;16.31
61086;BME280;46967;48.876;2.136;2023-11-19T01:34:31;101294.72;;;42.54;16.74
61086;BME280;46967;48.876;2.136;2023-11-19T01:36:56;101290.78;;;42.28;16.71
61086;BME280;46967;48.876;2.136;2023-11-19T01:39:22;101295.94;;;42.75;16.49
61086;BME280;46967;48.876;2.136;2023-11-19T01:41:47;101293.44;;;40.82;18.21
61086;BME280;46967;48.876;2.136;2023-11-19T01:44:13;101302.59;;;42.50;16.28
61086;BME280;46967;48.876;2.136;2023-11-19T01:46:40;101307.78;;;43.20;15.79
61086;BME280;46967;48.876;2.136;2023-11-19T01:49:05;101314.97;;;42.92;15.84
61086;BME280;46967;48.876;2.136;2023-11-19T01:51:32;101321.66;;;42.05;16.64
61086;BME280;46967;48.876;2.136;2023-11-19T01:53:58;101314.78;;;43.55;15.13
61086;BME280;46967;48.876;2.136;2023-11-19T01:56:23;101309.16;;;42.66;15.95
61086;BME280;46967;48.876;2.136;2023-11-19T01:58:50;101304.94;;;43.54;15.66
61086;BME280;46967;48.876;2.136;2023-11-19T02:01:16;101293.34;;;42.85;15.65
61086;BME280;46967;48.876;2.136;2023-11-19T02:03:42;101282.13;;;42.99;15.91
61086;BME280;46967;48.876;2.136;2023-11-19T02:06:07;101287.00;;;42.80;16.19
61086;BME280;46967;48.876;2.136;2023-11-19T02:08:35;101276.84;;;42.58;15.95
61086;BME280;46967;48.876;2.136;2023-11-19T02:11:00;101277.69;;;41.43;16.99
61086;BME280;46967;48.876;2.136;2023-11-19T02:13:27;101286.81;;;42.69;15.88
61086;BME280;46967;48.876;2.136;2023-11-19T02:15:53;101291.16;;;42.65;16.07
61086;BME280;46967;48.876;2.136;2023-11-19T02:18:25;101287.72;;;43.31;15.60
61086;BME280;46967;48.876;2.136;2023-11-19T02:20:54;101289.25;;;43.44;15.39
61086;BME280;46967;48.876;2.136;2023-11-19T02:23:20;101294.69;;;43.88;14.73
61086;BME280;46967;48.876;2.136;2023-11-19T02:25:49;101287.22;;;43.78;15.13
61086;BME280;46967;48.876;2.136;2023-11-19T02:28:17;101294.34;;;43.57;14.97
61086;BME280;46967;48.876;2.136;2023-11-19T02:30:43;101284.72;;;43.11;15.75
61086;BME280;46967;48.876;2.136;2023-11-19T02:33:08;101293.97;;;43.49;15.26
61086;BME280;46967;48.876;2.136;2023-11-19T02:35:34;101282.53;;;43.52;15.13
61086;BME280;46967;48.876;2.136;2023-11-19T02:38:00;101287.44;;;43.50;15.04
61086;BME280;46967;48.876;2.136;2023-11-19T02:40:34;101290.03;;;43.89;14.63
61086;BME280;46967;48.876;2.136;2023-11-19T02:42:59;101287.13;;;43.95;15.04
61086;BME280;46967;48.876;2.136;2023-11-19T02:45:26;101276.75;;;43.48;15.27
61086;BME280;46967;48.876;2.136;2023-11-19T02:47:52;101276.06;;;42.00;16.20
61086;BME280;46967;48.876;2.136;2023-11-19T02:50:19;101273.56;;;43.56;14.81
61086;BME280;46967;48.876;2.136;2023-11-19T02:52:51;101284.53;;;43.84;14.51
61086;BME280;46967;48.876;2.136;2023-11-19T02:55:17;101282.72;;;43.67;14.63
61086;BME280;46967;48.876;2.136;2023-11-19T02:57:43;101272.72;;;42.10;16.31
61086;BME280;46967;48.876;2.136;2023-11-19T03:00:17;101275.97;;;43.31;15.03
61086;BME280;46967;48.876;2.136;2023-11-19T03:02:44;101286.56;;;42.71;15.81
61086;BME280;46967;48.876;2.136;2023-11-19T03:05:15;101273.44;;;43.24;14.97
61086;BME280;46967;48.876;2.136;2023-11-19T03:07:42;101265.09;;;43.14;15.13
61086;BME280;46967;48.876;2.136;2023-11-19T03:10:09;101266.41;;;43.50;14.97
61086;BME280;46967;48.876;2.136;2023-11-19T03:12:37;101256.09;;;43.35;15.18
61086;BME280;46967;48.876;2.136;2023-11-19T03:15:03;101269.88;;;42.84;15.37
61086;BME280;46967;48.876;2.136;2023-11-19T03:17:28;101278.66;;;43.25;14.91
61086;BME280;46967;48.876;2.136;2023-11-19T03:19:54;101271.84;;;43.50;14.81
61086;BME280;46967;48.876;2.136;2023-11-19T03:22:19;101266.97;;;42.23;16.13
61086;BME280;46967;48.876;2.136;2023-11-19T03:24:46;101259.91;;;43.12;15.18
61086;BME280;46967;48.876;2.136;2023-11-19T03:27:11;101267.63;;;42.47;15.75
61086;BME280;46967;48.876;2.136;2023-11-19T03:29:36;101276.72;;;43.26;15.18
61086;BME280;46967;48.876;2.136;2023-11-19T03:32:04;101269.13;;;43.50;15.00
61086;BME280;46967;48.876;2.136;2023-11-19T03:34:29;101277.59;;;43.10;14.99
61086;BME280;46967;48.876;2.136;2023-11-19T03:36:54;101279.47;;;43.26;15.17
61086;BME280;46967;48.876;2.136;2023-11-19T03:39:21;101276.72;;;43.26;15.11
61086;BME280;46967;48.876;2.136;2023-11-19T03:41:49;101267.78;;;43.31;14.91
61086;BME280;46967;48.876;2.136;2023-11-19T03:44:15;101263.31;;;43.41;14.53
61086;BME280;46967;48.876;2.136;2023-11-19T03:46:40;101265.94;;;43.36;15.04
61086;BME280;46967;48.876;2.136;2023-11-19T03:49:05;101277.03;;;43.30;14.84
61086;BME280;46967;48.876;2.136;2023-11-19T03:51:32;101269.34;;;43.27;14.71
61086;BME280;46967;48.876;2.136;2023-11-19T03:53:57;101265.56;;;43.05;15.07
61086;BME280;46967;48.876;2.136;2023-11-19T03:56:24;101270.88;;;42.78;15.03
61086;BME280;46967;48.876;2.136;2023-11-19T03:58:49;101267.84;;;42.12;16.03
61086;BME280;46967;48.876;2.136;2023-11-19T04:01:14;101261.03;;;42.26;15.40
61086;BME280;46967;48.876;2.136;2023-11-19T04:03:40;101262.94;;;42.26;15.50
61086;BME280;46967;48.876;2.136;2023-11-19T04:06:05;101264.06;;;42.81;15.20
61086;BME280;46967;48.876;2.136;2023-11-19T04:08:31;101267.81;;;42.41;15.28
61086;BME280;46967;48.876;2.136;2023-11-19T04:10:56;101269.81;;;41.99;15.74
61086;BME280;46967;48.876;2.136;2023-11-19T04:13:21;101275.66;;;42.37;15.70
61086;BME280;46967;48.876;2.136;2023-11-19T04:15:49;101272.94;;;41.51;15.91
61086;BME280;46967;48.876;2.136;2023-11-19T04:18:14;101281.78;;;42.61;15.22
61086;BME280;46967;48.876;2.136;2023-11-19T04:20:40;101283.47;;;42.62;15.16
61086;BME280;46967;48.876;2.136;2023-11-19T04:23:07;101276.72;;;42.70;15.16
61086;BME280;46967;48.876;2.136;2023-11-19T04:25:33;101285.25;;;41.94;15.75
61086;BME280;46967;48.876;2.136;2023-11-19T04:27:58;101280.22;;;41.62;15.96
61086;BME280;46967;48.876;2.136;2023-11-19T04:30:23;101278.06;;;42.05;15.13
61086;BME280;46967;48.876;2.136;2023-11-19T04:32:49;101281.31;;;41.61;16.05
61086;BME280;46967;48.876;2.136;2023-11-19T04:35:14;101272.53;;;42.45;15.17
61086;BME280;46967;48.876;2.136;2023-11-19T04:37:39;101279.63;;;42.63;14.67
61086;BME280;46967;48.876;2.136;2023-11-19T04:40:07;101279.31;;;42.77;14.46
61086;BME280;46967;48.876;2.136;2023-11-19T04:42:32;101274.91;;;42.76;14.54
61086;BME280;46967;48.876;2.136;2023-11-19T04:44:57;101282.44;;;42.34;15.21
61086;BME280;46967;48.876;2.136;2023-11-19T04:47:23;101280.13;;;41.57;15.52
61086;BME280;46967;48.876;2.136;2023-11-19T04:49:48;101277.41;;;41.97;15.45
61086;BME280;46967;48.876;2.136;2023-11-19T04:52:13;101278.56;;;42.02;15.01
61086;BME280;46967;48.876;2.136;2023-11-19T04:54:43;101288.56;;;42.42;14.82
61086;BME280;46967;48.876;2.136;2023-11-19T04:57:09;101288.84;;;42.11;15.17
61086;BME280;46967;48.876;2.136;2023-11-19T04:59:36;101292.28;;;42.07;15.12
61086;BME280;46967;48.876;2.136;2023-11-19T05:02:02;101300.16;;;41.27;15.50
61086;BME280;46967;48.876;2.136;2023-11-19T05:04:27;101297.81;;;42.12;15.17
61086;BME280;46967;48.876;2.136;2023-11-19T05:06:52;101302.66;;;41.93;15.41
61086;BME280;46967;48.876;2.136;2023-11-19T05:09:18;101307.47;;;42.03;14.96
61086;BME280;46967;48.876;2.136;2023-11-19T05:11:43;101308.28;;;42.32;14.57
61086;BME280;46967;48.876;2.136;2023-11-19T05:14:09;101303.66;;;42.32;14.93
61086;BME280;46967;48.876;2.136;2023-11-19T05:16:34;101308.22;;;42.78;14.54
61086;BME280;46967;48.876;2.136;2023-11-19T05:19:00;101319.75;;;42.51;14.70
61086;BME280;46967;48.876;2.136;2023-11-19T05:21:25;101323.41;;;42.11;15.16
61086;BME280;46967;48.876;2.136;2023-11-19T05:23:51;101322.59;;;41.70;15.33
61086;BME280;46967;48.876;2.136;2023-11-19T05:26:20;101314.66;;;41.04;15.84
61086;BME280;46967;48.876;2.136;2023-11-19T05:28:46;101317.19;;;41.58;15.08
61086;BME280;46967;48.876;2.136;2023-11-19T05:31:11;101319.69;;;41.47;14.92
61086;BME280;46967;48.876;2.136;2023-11-19T05:33:37;101320.34;;;41.67;15.32
61086;BME280;46967;48.876;2.136;2023-11-19T05:36:02;101315.50;;;41.69;15.21
61086;BME280;46967;48.876;2.136;2023-11-19T05:38:29;101320.22;;;41.85;14.87
61086;BME280;46967;48.876;2.136;2023-11-19T05:40:55;101316.84;;;41.95;14.96
61086;BME280;46967;48.876;2.136;2023-11-19T05:43:20;101319.78;;;42.05;14.45
61086;BME280;46967;48.876;2.136;2023-11-19T05:45:46;101319.19;;;41.62;14.95
61086;BME280;46967;48.876;2.136;2023-11-19T05:48:11;101309.66;;;41.89;15.07
61086;BME280;46967;48.876;2.136;2023-11-19T05:50:37;101315.28;;;41.70;15.10
61086;BME280;46967;48.876;2.136;2023-11-19T05:53:02;101323.13;;;41.43;14.93
61086;BME280;46967;48.876;2.136;2023-11-19T05:55:30;101319.44;;;39.57;16.96
61086;BME280;46967;48.876;2.136;2023-11-19T05:57:56;101313.13;;;39.63;16.69
61086;BME280;46967;48.876;2.136;2023-11-19T06:00:21;101308.59;;;41.14;15.29
61086;BME280;46967;48.876;2.136;2023-11-19T06:02:47;101316.72;;;41.49;14.87
61086;BME280;46967;48.876;2.136;2023-11-19T06:05:12;101315.00;;;41.31;15.00
61086;BME280;46967;48.876;2.136;2023-11-19T06:07:38;101321.75;;;40.93;15.29
61086;BME280;46967;48.876;2.136;2023-11-19T06:10:06;101323.34;;;38.73;17.55
61086;BME280;46967;48.876;2.136;2023-11-19T06:12:34;101334.66;;;40.44;15.75
61086;BME280;46967;48.876;2.136;2023-11-19T06:15:04;101330.38;;;41.14;15.00
61086;BME280;46967;48.876;2.136;2023-11-19T06:17:29;101334.38;;;41.11;15.49
61086;BME280;46967;48.876;2.136;2023-11-19T06:19:55;101340.19;;;41.26;15.30
61086;BME280;46967;48.876;2.136;2023-11-19T06:22:20;101346.91;;;41.24;15.10
61086;BME280;46967;48.876;2.136;2023-11-19T06:24:46;101348.81;;;40.46;15.70
61086;BME280;46967;48.876;2.136;2023-11-19T06:27:11;101347.84;;;40.40;15.36
61086;BME280;46967;48.876;2.136;2023-11-19T06:29:37;101357.16;;;40.32;15.57
61086;BME280;46967;48.876;2.136;2023-11-19T06:32:02;101350.91;;;40.62;15.50
61086;BME280;46967;48.876;2.136;2023-11-19T06:34:28;101339.75;;;40.64;15.25
61086;BME280;46967;48.876;2.136;2023-11-19T06:36:53;101335.09;;;39.92;15.76
61086;BME280;46967;48.876;2.136;2023-11-19T06:39:18;101337.69;;;40.35;15.40
61086;BME280;46967;48.876;2.136;2023-11-19T06:41:46;101346.19;;;40.81;14.79
61086;BME280;46967;48.876;2.136;2023-11-19T06:44:11;101349.28;;;40.43;15.20
61086;BME280;46967;48.876;2.136;2023-11-19T06:46:37;101348.72;;;40.22;15.52
61086;BME280;46967;48.876;2.136;2023-11-19T06:49:02;101349.56;;;40.23;15.58
61086;BME280;46967;48.876;2.136;2023-11-19T06:51:27;101336.69;;;40.60;15.17
61086;BME280;46967;48.876;2.136;2023-11-19T06:53:53;101346.56;;;40.97;14.75
61086;BME280;46967;48.876;2.136;2023-11-19T06:56:22;101345.88;;;40.89;14.85
61086;BME280;46967;48.876;2.136;2023-11-19T06:58:48;101353.75;;;40.37;14.97
61086;BME280;46967;48.876;2.136;2023-11-19T07:01:18;101352.13;;;40.17;15.36
61086;BME280;46967;48.876;2.136;2023-11-19T07:03:46;101344.59;;;40.50;14.79
61086;BME280;46967;48.876;2.136;2023-11-19T07:06:12;101349.16;;;39.70;15.43
61086;BME280;46967;48.876;2.136;2023-11-19T07:08:38;101353.28;;;39.54;15.47
61086;BME280;46967;48.876;2.136;2023-11-19T07:11:04;101355.53;;;40.13;15.22
61086;BME280;46967;48.876;2.136;2023-11-19T07:13:29;101349.09;;;38.12;17.01
61086;BME280;46967;48.876;2.136;2023-11-19T07:15:55;101357.63;;;39.99;15.44
61086;BME280;46967;48.876;2.136;2023-11-19T07:18:21;101352.91;;;38.50;16.51
61086;BME280;46967;48.876;2.136;2023-11-19T07:20:47;101357.28;;;39.70;15.64
61086;BME280;46967;48.876;2.136;2023-11-19T07:23:13;101351.34;;;39.80;15.35
61086;BME280;46967;48.876;2.136;2023-11-19T07:25:39;101349.91;;;39.96;14.99
61086;BME280;46967;48.876;2.136;2023-11-19T07:28:05;101362.63;;;40.14;15.21
61086;BME280;46967;48.876;2.136;2023-11-19T07:30:32;101360.78;;;40.56;14.75
61086;BME280;46967;48.876;2.136;2023-11-19T07:32:58;101371.19;;;39.37;15.29
61086;BME280;46967;48.876;2.136;2023-11-19T07:35:23;101370.81;;;40.26;14.78
61086;BME280;46967;48.876;2.136;2023-11-19T07:37:48;101374.34;;;40.45;14.66
61086;BME280;46967;48.876;2.136;2023-11-19T07:40:15;101378.81;;;40.39;14.55
61086;BME280;46967;48.876;2.136;2023-11-19T07:42:40;101373.94;;;40.71;14.56
61086;BME280;46967;48.876;2.136;2023-11-19T07:45:06;101381.56;;;40.51;14.86
61086;BME280;46967;48.876;2.136;2023-11-19T07:47:32;101383.03;;;38.67;16.19
61086;BME280;46967;48.876;2.136;2023-11-19T07:49:57;101374.50;;;39.20;16.41
61086;BME280;46967;48.876;2.136;2023-11-19T07:52:22;101373.38;;;39.53;15.82
61086;BME280;46967;48.876;2.136;2023-11-19T07:54:48;101368.16;;;40.37;15.25
61086;BME280;46967;48.876;2.136;2023-11-19T07:57:13;101361.25;;;40.42;14.95
61086;BME280;46967;48.876;2.136;2023-11-19T07:59:39;101363.84;;;40.90;14.85
61086;BME280;46967;48.876;2.136;2023-11-19T08:02:05;101371.03;;;39.57;15.74
61086;BME280;46967;48.876;2.136;2023-11-19T08:04:30;101374.63;;;40.67;14.66
61086;BME280;46967;48.876;2.136;2023-11-19T08:06:56;101377.34;;;40.97;14.83
61086;BME280;46967;48.876;2.136;2023-11-19T08:09:21;101368.44;;;40.17;15.34
61086;BME280;46967;48.876;2.136;2023-11-19T08:11:47;101378.09;;;40.74;14.52
61086;BME280;46967;48.876;2.136;2023-11-19T08:14:13;101382.13;;;40.83;14.56
61086;BME280;46967;48.876;2.136;2023-11-19T08:16:39;101377.81;;;39.22;16.29
61086;BME280;46967;48.876;2.136;2023-11-19T08:19:04;101380.97;;;38.23;16.79
61086;BME280;46967;48.876;2.136;2023-11-19T08:21:30;101384.34;;;39.95;15.50
61086;BME280;46967;48.876;2.136;2023-11-19T08:23:55;101386.78;;;40.52;14.79
61086;BME280;46967;48.876;2.136;2023-11-19T08:26:21;101388.50;;;40.77;15.15
61086;BME280;46967;48.876;2.136;2023-11-19T08:28:46;101398.84;;;40.26;15.21
61086;BME280;46967;48.876;2.136;2023-11-19T08:31:12;101397.41;;;40.24;15.33
61086;BME280;46967;48.876;2.136;2023-11-19T08:33:37;101399.69;;;40.99;14.21
61086;BME280;46967;48.876;2.136;2023-11-19T08:36:03;101400.75;;;38.24;16.77
61086;BME280;46967;48.876;2.136;2023-11-19T08:38:29;101403.75;;;39.18;15.97
61086;BME280;46967;48.876;2.136;2023-11-19T08:40:55;101406.97;;;40.45;14.97
61086;BME280;46967;48.876;2.136;2023-11-19T08:43:25;101414.41;;;40.80;14.37
61086;BME280;46967;48.876;2.136;2023-11-19T08:45:50;101409.00;;;38.81;16.09
61086;BME280;46967;48.876;2.136;2023-11-19T08:48:16;101414.72;;;41.25;14.35
61086;BME280;46967;48.876;2.136;2023-11-19T08:50:41;101415.50;;;40.90;14.65
61086;BME280;46967;48.876;2.136;2023-11-19T08:53:06;101412.63;;;41.39;14.17
61086;BME280;46967;48.876;2.136;2023-11-19T08:55:32;101422.63;;;40.12;14.90
61086;BME280;46967;48.876;2.136;2023-11-19T08:57:57;101423.16;;;40.21;14.71
61086;BME280;46967;48.876;2.136;2023-11-19T09:00:23;101424.09;;;40.75;14.49
61086;BME280;46967;48.876;2.136;2023-11-19T09:02:48;101434.47;;;40.67;14.33
61086;BME280;46967;48.876;2.136;2023-11-19T09:05:14;101437.84;;;39.76;15.20
61086;BME280;46967;48.876;2.136;2023-11-19T09:07:39;101439.88;;;39.81;15.40
61086;BME280;46967;48.876;2.136;2023-11-19T09:10:05;101450.22;;;39.72;15.23
61086;BME280;46967;48.876;2.136;2023-11-19T09:12:30;101442.31;;;40.26;14.83
61086;BME280;46967;48.876;2.136;2023-11-19T09:14:56;101447.28;;;39.48;15.43
61086;BME280;46967;48.876;2.136;2023-11-19T09:17:21;101442.94;;;39.91;15.34
61086;BME280;46967;48.876;2.136;2023-11-19T09:19:46;101451.88;;;40.78;14.50
61086;BME280;46967;48.876;2.136;2023-11-19T09:22:12;101452.59;;;41.15;14.02
61086;BME280;46967;48.876;2.136;2023-11-19T09:24:37;101451.28;;;41.18;13.89
61086;BME280;46967;48.876;2.136;2023-11-19T09:27:03;101439.09;;;38.73;15.67
61086;BME280;46967;48.876;2.136;2023-11-19T09:29:31;101430.66;;;40.86;14.03
61086;BME280;46967;48.876;2.136;2023-11-19T09:31:57;101442.31;;;40.26;14.45
61086;BME280;46967;48.876;2.136;2023-11-19T09:34:23;101430.47;;;41.12;13.87
61086;BME280;46967;48.876;2.136;2023-11-19T09:36:48;101437.91;;;41.04;14.21
61086;BME280;46967;48.876;2.136;2023-11-19T09:39:13;101429.88;;;39.06;15.35
61086;BME280;46967;48.876;2.136;2023-11-19T09:41:43;101430.47;;;39.14;15.45
61086;BME280;46967;48.876;2.136;2023-11-19T09:44:10;101417.63;;;39.54;15.44
61086;BME280;46967;48.876;2.136;2023-11-19T09:46:38;101430.91;;;39.62;15.20
61086;BME280;46967;48.876;2.136;2023-11-19T09:49:05;101426.03;;;40.26;14.54
61086;BME280;46967;48.876;2.136;2023-11-19T09:51:33;101426.28;;;38.41;16.03
61086;BME280;46967;48.876;2.136;2023-11-19T09:53:58;101432.94;;;40.59;14.45
61086;BME280;46967;48.876;2.136;2023-11-19T09:56:24;101435.59;;;41.43;13.90
61086;BME280;46967;48.876;2.136;2023-11-19T09:58:50;101439.28;;;40.95;13.87
61086;BME280;46967;48.876;2.136;2023-11-19T10:01:15;101432.50;;;39.44;14.82
61086;BME280;46967;48.876;2.136;2023-11-19T10:03:40;101441.50;;;39.45;15.10
61086;BME280;46967;48.876;2.136;2023-11-19T10:06:07;101445.00;;;40.45;14.47
61086;BME280;46967;48.876;2.136;2023-11-19T10:08:33;101439.59;;;39.71;14.83
61086;BME280;46967;48.876;2.136;2023-11-19T10:10:58;101443.34;;;40.62;14.00
61086;BME280;46967;48.876;2.136;2023-11-19T10:13:28;101443.97;;;41.66;13.54
61086;BME280;46967;48.876;2.136;2023-11-19T10:15:55;101434.72;;;42.02;13.10
61086;BME280;46967;48.876;2.136;2023-11-19T10:18:26;101440.66;;;41.16;13.53
61086;BME280;46967;48.876;2.136;2023-11-19T10:20:52;101441.69;;;41.27;13.73
61086;BME280;46967;48.876;2.136;2023-11-19T10:23:17;101430.97;;;41.56;13.48
61086;BME280;46967;48.876;2.136;2023-11-19T10:25:42;101427.25;;;41.97;13.16
61086;BME280;46967;48.876;2.136;2023-11-19T10:28:08;101409.31;;;39.23;14.85
61086;BME280;46967;48.876;2.136;2023-11-19T10:30:33;101431.84;;;38.60;15.28
61086;BME280;46967;48.876;2.136;2023-11-19T10:33:10;101428.56;;;39.84;14.48
61086;BME280;46967;48.876;2.136;2023-11-19T10:35:50;101434.91;;;40.33;14.25
61086;BME280;46967;48.876;2.136;2023-11-19T10:38:19;101432.91;;;40.89;14.05
61086;BME280;46967;48.876;2.136;2023-11-19T10:40:45;101425.34;;;39.00;15.05
61086;BME280;46967;48.876;2.136;2023-11-19T10:43:10;101427.84;;;38.69;15.15
61086;BME280;46967;48.876;2.136;2023-11-19T10:45:36;101438.69;;;39.77;14.33
61086;BME280;46967;48.876;2.136;2023-11-19T10:48:03;101422.16;;;39.09;14.78
61086;BME280;46967;48.876;2.136;2023-11-19T10:50:39;101424.31;;;38.69;15.15
61086;BME280;46967;48.876;2.136;2023-11-19T10:53:06;101430.03;;;40.42;13.97
61086;BME280;46967;48.876;2.136;2023-11-19T10:55:36;101431.28;;;39.84;14.44
61086;BME280;46967;48.876;2.136;2023-11-19T10:58:15;101422.38;;;39.33;14.23
61086;BME280;46967;48.876;2.136;2023-11-19T11:00:54;101422.03;;;38.14;15.37
61086;BME280;46967;48.876;2.136;2023-11-19T11:03:22;101425.59;;;38.08;15.63
61086;BME280;46967;48.876;2.136;2023-11-19T11:05:51;101420.69;;;37.51;15.93
61086;BME280;46967;48.876;2.136;2023-11-19T11:08:18;101420.88;;;40.97;13.49
61086;BME280;46967;48.876;2.136;2023-11-19T11:10:54;101428.25;;;39.92;13.92
61086;BME280;46967;48.876;2.136;2023-11-19T11:13:22;101425.09;;;38.76;14.80
61086;BME280;46967;48.876;2.136;2023-11-19T11:15:48;101427.75;;;39.83;14.00
61086;BME280;46967;48.876;2.136;2023-11-19T11:18:14;101416.88;;;39.21;14.41
61086;BME280;46967;48.876;2.136;2023-11-19T11:20:40;101420.94;;;40.48;13.37
61086;BME280;46967;48.876;2.136;2023-11-19T11:29:01;101418.91;;;38.69;14.48
61086;BME280;46967;48.876;2.136;2023-11-19T11:31:48;101413.84;;;37.22;15.80
61086;BME280;46967;48.876;2.136;2023-11-19T11:39:33;101414.72;;;38.21;14.58
61086;BME280;46967;48.876;2.136;2023-11-19T11:45:06;101406.22;;;36.50;16.52
61086;BME280;46967;48.876;2.136;2023-11-19T11:50:23;101407.00;;;39.71;13.86
61086;BME280;46967;48.876;2.136;2023-11-19T11:57:51;101401.72;;;40.62;13.02
61086;BME280;46967;48.876;2.136;2023-11-19T12:00:32;101395.34;;;40.68;12.95
61086;BME280;46967;48.876;2.136;2023-11-19T12:03:02;101393.78;;;41.61;12.07
61086;BME280;46967;48.876;2.136;2023-11-19T12:05:27;101409.53;;;41.47;12.06
61086;BME280;46967;48.876;2.136;2023-11-19T12:08:00;101396.00;;;40.93;12.80
61086;BME280;46967;48.876;2.136;2023-11-19T12:10:29;101396.56;;;39.24;13.77
61086;BME280;46967;48.876;2.136;2023-11-19T12:13:01;101404.28;;;39.89;13.31
61086;BME280;46967;48.876;2.136;2023-11-19T12:15:27;101400.78;;;38.63;14.13
61086;BME280;46967;48.876;2.136;2023-11-19T12:17:55;101405.34;;;36.50;15.92
61086;BME280;46967;48.876;2.136;2023-11-19T12:20:22;101398.75;;;39.40;13.57
61086;BME280;46967;48.876;2.136;2023-11-19T12:22:48;101399.06;;;40.85;12.69
61086;BME280;46967;48.876;2.136;2023-11-19T12:25:15;101403.72;;;39.43;13.77
61086;BME280;46967;48.876;2.136;2023-11-19T12:27:47;101397.75;;;40.46;12.74
61086;BME280;46967;48.876;2.136;2023-11-19T12:30:17;101385.88;;;41.48;12.13
61086;BME280;46967;48.876;2.136;2023-11-19T12:32:43;101382.28;;;39.97;13.08
61086;BME280;46967;48.876;2.136;2023-11-19T12:35:10;101383.00;;;41.19;12.63
61086;BME280;46967;48.876;2.136;2023-11-19T12:37:42;101387.94;;;41.70;12.35
61086;BME280;46967;48.876;2.136;2023-11-19T12:40:12;101390.00;;;40.31;12.64
61086;BME280;46967;48.876;2.136;2023-11-19T12:42:38;101374.47;;;38.31;14.30
61086;BME280;46967;48.876;2.136;2023-11-19T12:45:05;101363.28;;;38.08;14.50
61086;BME280;46967;48.876;2.136;2023-11-19T12:47:30;101365.72;;;38.29;14.39
61086;BME280;46967;48.876;2.136;2023-11-19T12:49:56;101371.34;;;39.67;13.27
61086;BME280;46967;48.876;2.136;2023-11-19T12:52:22;101372.81;;;38.94;13.98
61086;BME280;46967;48.876;2.136;2023-11-19T12:54:48;101390.25;;;39.92;13.23
61086;BME280;46967;48.876;2.136;2023-11-19T12:57:14;101385.91;;;37.68;15.67
61086;BME280;46967;48.876;2.136;2023-11-19T12:59:40;101387.63;;;38.66;14.49
61086;BME280;46967;48.876;2.136;2023-11-19T13:02:05;101384.03;;;37.75;14.58
61086;BME280;46967;48.876;2.136;2023-11-19T13:04:32;101387.25;;;38.63;14.59
61086;BME280;46967;48.876;2.136;2023-11-19T13:06:58;101373.66;;;39.45;13.52
61086;BME280;46967;48.876;2.136;2023-11-19T13:09:24;101366.22;;;40.99;12.45